createdAt,value
2017-11-24T00:00:01.430Z,0.00
2017-11-24T00:01:01.429Z,0.00
2017-11-24T00:02:01.428Z,0.00
2017-11-24T00:03:01.422Z,0.00
2017-11-24T00:04:01.425Z,0.00
2017-11-24T00:05:01.458Z,0.00
2017-11-24T00:06:01.424Z,0.00
2017-11-24T00:07:01.417Z,0.00
2017-11-24T00:08:01.415Z,0.00
2017-11-24T00:09:01.418Z,0.00
2017-11-24T00:10:01.417Z,0.00
2017-11-24T00:11:01.413Z,0.00
2017-11-24T00:12:01.413Z,0.00
2017-11-24T00:13:01.407Z,0.00
2017-11-24T00:14:01.413Z,0.00
2017-11-24T00:15:01.415Z,0.00
2017-11-24T00:16:01.408Z,0.00
2017-11-24T00:17:01.404Z,0.00
2017-11-24T00:18:01.405Z,0.00
2017-11-24T00:19:01.404Z,0.00
2017-11-24T00:20:01.405Z,0.00
2017-11-24T00:21:01.400Z,0.00
2017-11-24T00:22:01.396Z,0.00
2017-11-24T00:23:01.401Z,0.00
2017-11-24T00:24:01.395Z,0.00
2017-11-24T00:25:01.402Z,0.00
2017-11-24T00:26:01.395Z,0.00
2017-11-24T00:27:01.394Z,0.00
2017-11-24T00:28:01.392Z,0.00
2017-11-24T00:29:01.393Z,0.00
2017-11-24T00:30:01.383Z,0.00
2017-11-24T00:31:01.387Z,0.00
2017-11-24T00:32:01.384Z,0.00
2017-11-24T00:33:01.396Z,0.00
2017-11-24T00:34:01.381Z,0.00
2017-11-24T00:35:01.378Z,0.00
2017-11-24T00:36:01.384Z,0.00
2017-11-24T00:37:01.376Z,0.00
2017-11-24T00:38:01.377Z,0.00
2017-11-24T00:39:01.373Z,0.00
2017-11-24T00:40:01.375Z,0.00
2017-11-24T00:41:01.371Z,0.00
2017-11-24T00:42:01.376Z,0.00
2017-11-24T00:43:01.373Z,0.00
2017-11-24T00:44:01.367Z,0.00
2017-11-24T00:45:01.368Z,0.00
2017-11-24T00:46:01.363Z,0.00
2017-11-24T00:47:01.361Z,0.00
2017-11-24T00:48:01.362Z,0.00
2017-11-24T00:49:01.363Z,0.00
2017-11-24T00:50:01.360Z,0.00
2017-11-24T00:51:01.352Z,0.00
2017-11-24T00:52:01.359Z,0.00
2017-11-24T00:53:01.353Z,0.00
2017-11-24T00:54:01.353Z,0.00
2017-11-24T00:55:01.362Z,0.00
2017-11-24T00:56:01.353Z,0.00
2017-11-24T00:57:01.352Z,0.00
2017-11-24T00:58:01.344Z,0.00
2017-11-24T00:59:01.343Z,0.00
2017-11-24T01:00:01.344Z,0.00
2017-11-24T01:01:01.343Z,0.00
2017-11-24T01:02:01.347Z,0.00
2017-11-24T01:03:01.338Z,0.00
2017-11-24T01:04:01.343Z,0.00
2017-11-24T01:05:01.449Z,0.00
2017-11-24T01:06:01.333Z,0.00
2017-11-24T01:07:01.329Z,0.00
2017-11-24T01:08:01.329Z,0.00
2017-11-24T01:09:01.330Z,0.00
2017-11-24T01:10:01.328Z,0.00
2017-11-24T01:11:01.334Z,0.00
2017-11-24T01:12:01.321Z,0.00
2017-11-24T01:13:01.335Z,0.00
2017-11-24T01:14:01.321Z,0.00
2017-11-24T01:15:01.320Z,0.00
2017-11-24T01:16:01.319Z,0.00
2017-11-24T01:17:01.320Z,0.00
2017-11-24T01:18:01.312Z,0.00
2017-11-24T01:19:01.314Z,0.00
2017-11-24T01:20:01.316Z,0.00
2017-11-24T01:21:01.311Z,0.00
2017-11-24T01:22:01.305Z,0.00
2017-11-24T01:23:01.311Z,0.00
2017-11-24T01:24:01.301Z,0.00
2017-11-24T01:25:01.302Z,0.00
2017-11-24T01:26:01.307Z,0.00
2017-11-24T01:27:01.304Z,0.00
2017-11-24T01:28:01.324Z,0.00
2017-11-24T01:29:01.295Z,0.00
2017-11-24T01:30:01.291Z,0.00
2017-11-24T01:31:01.292Z,0.00
2017-11-24T01:32:01.290Z,0.00
2017-11-24T01:33:01.288Z,0.00
2017-11-24T01:34:01.289Z,0.00
2017-11-24T01:35:01.284Z,0.00
2017-11-24T01:36:01.295Z,0.00
2017-11-24T01:37:01.287Z,0.00
2017-11-24T01:38:01.280Z,0.00
2017-11-24T01:39:01.280Z,0.00
2017-11-24T01:40:01.282Z,0.00
2017-11-24T01:41:01.285Z,0.00
2017-11-24T01:42:01.286Z,0.00
2017-11-24T01:43:01.276Z,0.00
2017-11-24T01:44:01.359Z,0.00
2017-11-24T01:45:01.273Z,0.00
2017-11-24T01:46:01.276Z,0.00
2017-11-24T01:47:01.270Z,0.00
2017-11-24T01:48:01.267Z,0.00
2017-11-24T01:49:01.264Z,0.00
2017-11-24T01:50:01.262Z,0.00
2017-11-24T01:51:01.277Z,0.00
2017-11-24T01:52:01.271Z,0.00
2017-11-24T01:53:01.260Z,0.00
2017-11-24T01:54:01.253Z,0.00
2017-11-24T01:55:01.260Z,0.00
2017-11-24T01:56:01.252Z,0.00
2017-11-24T01:57:01.254Z,0.00
2017-11-24T01:58:01.254Z,0.00
2017-11-24T01:59:01.257Z,0.00
2017-11-24T02:00:01.266Z,0.00
2017-11-24T02:01:01.310Z,0.00
2017-11-24T02:02:01.241Z,0.00
2017-11-24T02:03:01.249Z,0.00
2017-11-24T02:04:01.241Z,0.00
2017-11-24T02:05:01.239Z,0.00
2017-11-24T02:06:01.237Z,0.00
2017-11-24T02:07:01.393Z,0.00
2017-11-24T02:08:01.242Z,0.00
2017-11-24T02:09:01.234Z,0.00
2017-11-24T02:10:01.233Z,0.00
2017-11-24T02:11:01.229Z,0.00
2017-11-24T02:12:01.241Z,0.00
2017-11-24T02:13:01.235Z,0.00
2017-11-24T02:14:01.233Z,0.00
2017-11-24T02:15:01.222Z,0.00
2017-11-24T02:16:01.230Z,0.00
2017-11-24T02:17:01.225Z,0.00
2017-11-24T02:18:01.216Z,0.00
2017-11-24T02:19:01.224Z,0.00
2017-11-24T02:20:01.358Z,0.00
2017-11-24T02:21:01.211Z,0.00
2017-11-24T02:22:01.217Z,0.00
2017-11-24T02:23:01.211Z,0.00
2017-11-24T02:24:01.212Z,0.00
2017-11-24T02:25:01.208Z,0.00
2017-11-24T02:26:01.212Z,0.00
2017-11-24T02:27:01.201Z,0.00
2017-11-24T02:28:01.202Z,0.00
2017-11-24T02:29:01.199Z,0.00
2017-11-24T02:30:01.200Z,0.00
2017-11-24T02:31:01.196Z,0.00
2017-11-24T02:32:01.195Z,0.00
2017-11-24T02:33:01.190Z,0.00
2017-11-24T02:34:01.192Z,0.00
2017-11-24T02:35:01.181Z,0.00
2017-11-24T02:36:01.185Z,0.00
2017-11-24T02:37:01.183Z,0.00
2017-11-24T02:38:01.185Z,0.00
2017-11-24T02:39:01.183Z,0.00
2017-11-24T02:40:01.185Z,0.00
2017-11-24T02:41:01.176Z,0.00
2017-11-24T02:42:01.175Z,0.00
2017-11-24T02:43:01.173Z,0.00
2017-11-24T02:44:01.173Z,0.00
2017-11-24T02:45:01.172Z,0.00
2017-11-24T02:46:01.167Z,0.00
2017-11-24T02:47:01.627Z,0.00
2017-11-24T02:48:01.161Z,0.00
2017-11-24T02:49:01.157Z,0.00
2017-11-24T02:50:01.160Z,0.00
2017-11-24T02:51:01.158Z,0.00
2017-11-24T02:52:01.161Z,0.00
2017-11-24T02:53:01.155Z,0.00
2017-11-24T02:54:01.151Z,0.00
2017-11-24T02:55:01.151Z,0.00
2017-11-24T02:56:01.153Z,0.00
2017-11-24T02:57:01.157Z,0.00
2017-11-24T02:58:01.144Z,0.00
2017-11-24T02:59:01.147Z,0.00
2017-11-24T03:00:01.146Z,0.00
2017-11-24T03:01:01.137Z,0.00
2017-11-24T03:02:01.141Z,0.00
2017-11-24T03:03:01.138Z,0.00
2017-11-24T03:04:01.132Z,0.00
2017-11-24T03:05:01.132Z,0.00
2017-11-24T03:06:01.130Z,0.00
2017-11-24T03:07:01.136Z,0.00
2017-11-24T03:08:01.125Z,0.00
2017-11-24T03:09:01.140Z,0.00
2017-11-24T03:10:01.127Z,0.00
2017-11-24T03:11:01.125Z,0.00
2017-11-24T03:12:01.126Z,0.00
2017-11-24T03:13:01.127Z,0.00
2017-11-24T03:14:01.117Z,0.00
2017-11-24T03:15:01.116Z,0.00
2017-11-24T03:16:01.111Z,0.00
2017-11-24T03:17:01.114Z,0.00
2017-11-24T03:18:01.110Z,0.00
2017-11-24T03:19:01.108Z,0.00
2017-11-24T03:20:01.104Z,0.00
2017-11-24T03:21:01.107Z,0.00
2017-11-24T03:22:01.109Z,0.00
2017-11-24T03:23:01.116Z,0.00
2017-11-24T03:24:01.099Z,0.00
2017-11-24T03:25:01.114Z,0.00
2017-11-24T03:26:01.095Z,0.00
2017-11-24T03:27:01.092Z,0.00
2017-11-24T03:28:01.095Z,0.00
2017-11-24T03:29:01.092Z,0.00
2017-11-24T03:30:01.094Z,0.00
2017-11-24T03:31:01.089Z,0.00
2017-11-24T03:32:01.086Z,0.00
2017-11-24T03:33:01.083Z,0.00
2017-11-24T03:34:01.118Z,0.00
2017-11-24T03:35:01.079Z,0.00
2017-11-24T03:36:01.163Z,0.00
2017-11-24T03:37:01.080Z,0.00
2017-11-24T03:38:01.072Z,0.00
2017-11-24T03:39:01.088Z,0.00
2017-11-24T03:40:01.073Z,0.00
2017-11-24T03:41:01.071Z,0.00
2017-11-24T03:42:01.070Z,0.00
2017-11-24T03:43:01.076Z,0.00
2017-11-24T03:44:01.061Z,0.00
2017-11-24T03:45:01.069Z,0.00
2017-11-24T03:46:01.064Z,0.00
2017-11-24T03:47:01.062Z,0.00
2017-11-24T03:48:01.064Z,0.00
2017-11-24T03:49:01.060Z,0.00
2017-11-24T03:50:01.054Z,0.00
2017-11-24T03:51:01.054Z,0.00
2017-11-24T03:52:01.053Z,0.00
2017-11-24T03:53:01.052Z,0.00
2017-11-24T03:54:01.047Z,0.00
2017-11-24T03:55:01.048Z,0.00
2017-11-24T03:56:01.052Z,0.00
2017-11-24T03:57:01.044Z,0.00
2017-11-24T03:58:01.038Z,0.00
2017-11-24T03:59:01.040Z,0.00
2017-11-24T04:00:01.042Z,0.00
2017-11-24T04:01:01.036Z,0.00
2017-11-24T04:02:01.029Z,0.00
2017-11-24T04:03:01.035Z,0.00
2017-11-24T04:04:01.027Z,0.00
2017-11-24T04:05:01.032Z,0.00
2017-11-24T04:06:01.026Z,0.00
2017-11-24T04:07:01.046Z,0.00
2017-11-24T04:08:01.022Z,0.00
2017-11-24T04:09:01.019Z,0.00
2017-11-24T04:10:01.022Z,0.00
2017-11-24T04:11:01.017Z,0.00
2017-11-24T04:12:01.027Z,0.00
2017-11-24T04:13:01.020Z,0.00
2017-11-24T04:14:01.015Z,0.00
2017-11-24T04:15:01.006Z,0.00
2017-11-24T04:16:01.006Z,0.00
2017-11-24T04:17:01.013Z,0.00
2017-11-24T04:18:01.012Z,0.00
2017-11-24T04:19:01.004Z,0.00
2017-11-24T04:20:00.996Z,0.00
2017-11-24T04:21:00.999Z,0.00
2017-11-24T04:22:00.997Z,0.00
2017-11-24T04:23:00.995Z,0.00
2017-11-24T04:24:00.989Z,0.00
2017-11-24T04:25:00.992Z,0.00
2017-11-24T04:26:00.995Z,0.00
2017-11-24T04:27:00.984Z,0.00
2017-11-24T04:28:00.982Z,0.00
2017-11-24T04:29:00.981Z,0.00
2017-11-24T04:30:00.981Z,0.00
2017-11-24T04:31:00.977Z,0.00
2017-11-24T04:32:00.982Z,0.00
2017-11-24T04:33:00.973Z,0.00
2017-11-24T04:34:00.980Z,0.00
2017-11-24T04:35:00.988Z,0.00
2017-11-24T04:36:00.972Z,0.00
2017-11-24T04:37:00.964Z,0.00
2017-11-24T04:38:00.964Z,0.00
2017-11-24T04:39:00.960Z,0.00
2017-11-24T04:40:00.965Z,0.00
2017-11-24T04:41:00.960Z,0.00
2017-11-24T04:42:00.959Z,0.00
2017-11-24T04:43:00.956Z,0.00
2017-11-24T04:44:00.955Z,0.00
2017-11-24T04:45:00.950Z,0.00
2017-11-24T04:46:00.950Z,0.00
2017-11-24T04:47:00.947Z,0.00
2017-11-24T04:48:00.948Z,0.00
2017-11-24T04:49:00.948Z,0.00
2017-11-24T04:50:00.942Z,0.00
2017-11-24T04:51:00.944Z,0.00
2017-11-24T04:52:00.953Z,0.00
2017-11-24T04:53:00.974Z,0.00
2017-11-24T04:54:00.933Z,0.00
2017-11-24T04:55:00.933Z,0.00
2017-11-24T04:56:00.931Z,0.00
2017-11-24T04:57:00.934Z,0.00
2017-11-24T04:58:00.924Z,0.00
2017-11-24T04:59:00.924Z,0.00
2017-11-24T05:00:00.922Z,0.00
2017-11-24T05:01:00.924Z,0.00
2017-11-24T05:02:00.924Z,0.00
2017-11-24T05:03:00.923Z,0.00
2017-11-24T05:04:00.912Z,0.00
2017-11-24T05:05:00.921Z,0.00
2017-11-24T05:06:00.941Z,0.00
2017-11-24T05:07:00.939Z,0.00
2017-11-24T05:08:00.909Z,0.00
2017-11-24T05:09:00.913Z,0.00
2017-11-24T05:10:00.903Z,0.00
2017-11-24T05:11:00.903Z,0.00
2017-11-24T05:12:00.901Z,0.00
2017-11-24T05:13:00.901Z,0.00
2017-11-24T05:14:00.902Z,0.00
2017-11-24T05:15:00.901Z,0.00
2017-11-24T05:16:00.893Z,0.00
2017-11-24T05:17:00.892Z,0.00
2017-11-24T05:18:00.888Z,0.00
2017-11-24T05:19:00.896Z,0.00
2017-11-24T05:20:00.891Z,0.00
2017-11-24T05:21:00.895Z,0.00
2017-11-24T05:22:00.882Z,0.00
2017-11-24T05:23:00.880Z,0.00
2017-11-24T05:24:00.886Z,0.00
2017-11-24T05:25:00.874Z,0.00
2017-11-24T05:26:00.878Z,0.00
2017-11-24T05:27:00.875Z,0.00
2017-11-24T05:28:00.873Z,0.00
2017-11-24T05:29:00.875Z,0.00
2017-11-24T05:30:00.873Z,0.00
2017-11-24T05:31:01.398Z,0.00
2017-11-24T05:32:00.879Z,0.00
2017-11-24T05:33:00.869Z,0.00
2017-11-24T05:34:00.862Z,0.00
2017-11-24T05:35:00.861Z,0.00
2017-11-24T05:36:00.867Z,0.00
2017-11-24T05:37:00.868Z,0.00
2017-11-24T05:38:00.858Z,0.00
2017-11-24T05:39:00.849Z,0.00
2017-11-24T05:40:00.853Z,0.00
2017-11-24T05:41:00.849Z,0.00
2017-11-24T05:42:00.853Z,0.00
2017-11-24T05:43:00.863Z,0.00
2017-11-24T05:44:00.844Z,0.00
2017-11-24T05:45:00.847Z,0.00
2017-11-24T05:46:00.839Z,0.00
2017-11-24T05:47:00.845Z,0.00
2017-11-24T05:48:00.847Z,0.00
2017-11-24T05:49:00.836Z,0.00
2017-11-24T05:50:00.840Z,0.00
2017-11-24T05:51:00.834Z,0.00
2017-11-24T05:52:00.831Z,0.00
2017-11-24T05:53:00.838Z,0.00
2017-11-24T05:54:00.826Z,0.00
2017-11-24T05:55:00.829Z,0.00
2017-11-24T05:56:00.828Z,0.00
2017-11-24T05:57:00.871Z,0.00
2017-11-24T05:58:00.824Z,0.00
2017-11-24T05:59:00.821Z,0.00
2017-11-24T06:00:00.823Z,0.00
2017-11-24T06:01:00.818Z,0.00
2017-11-24T06:02:00.811Z,0.00
2017-11-24T06:03:00.848Z,0.00
2017-11-24T06:04:00.810Z,0.00
2017-11-24T06:05:00.811Z,0.00
2017-11-24T06:06:00.814Z,0.00
2017-11-24T06:07:00.823Z,0.00
2017-11-24T06:08:00.803Z,0.00
2017-11-24T06:09:00.802Z,0.00
2017-11-24T06:10:00.798Z,0.00
2017-11-24T06:11:00.804Z,0.00
2017-11-24T06:12:00.808Z,0.00
2017-11-24T06:13:00.795Z,0.00
2017-11-24T06:14:00.798Z,0.00
2017-11-24T06:15:00.802Z,0.00
2017-11-24T06:16:00.803Z,0.00
2017-11-24T06:17:00.792Z,0.00
2017-11-24T06:18:00.796Z,0.00
2017-11-24T06:19:00.789Z,0.00
2017-11-24T06:20:00.790Z,0.00
2017-11-24T06:21:00.801Z,0.00
2017-11-24T06:22:00.782Z,0.00
2017-11-24T06:23:00.786Z,0.00
2017-11-24T06:24:00.785Z,0.00
2017-11-24T06:25:00.780Z,0.00
2017-11-24T06:26:00.777Z,0.00
2017-11-24T06:27:00.772Z,0.00
2017-11-24T06:28:00.871Z,0.00
2017-11-24T06:29:00.769Z,0.00
2017-11-24T06:30:00.782Z,0.00
2017-11-24T06:31:00.768Z,0.00
2017-11-24T06:32:00.771Z,0.00
2017-11-24T06:33:00.766Z,0.00
2017-11-24T06:34:00.765Z,0.00
2017-11-24T06:35:00.764Z,0.00
2017-11-24T06:36:00.762Z,0.00
2017-11-24T06:37:00.767Z,0.00
2017-11-24T06:38:00.762Z,0.00
2017-11-24T06:39:00.762Z,0.00
2017-11-24T06:40:00.754Z,0.00
2017-11-24T06:41:00.755Z,0.00
2017-11-24T06:42:00.752Z,0.00
2017-11-24T06:43:00.750Z,0.00
2017-11-24T06:44:00.750Z,0.00
2017-11-24T06:45:00.764Z,0.00
2017-11-24T06:46:00.750Z,0.00
2017-11-24T06:47:00.744Z,0.00
2017-11-24T06:48:00.743Z,0.00
2017-11-24T06:49:00.743Z,0.00
2017-11-24T06:50:00.745Z,0.00
2017-11-24T06:51:00.741Z,0.00
2017-11-24T06:52:00.738Z,0.00
2017-11-24T06:53:00.741Z,0.00
2017-11-24T06:54:00.734Z,0.00
2017-11-24T06:55:00.729Z,0.00
2017-11-24T06:56:00.757Z,0.00
2017-11-24T06:57:00.737Z,0.00
2017-11-24T06:58:00.738Z,0.00
2017-11-24T06:59:00.735Z,0.00
2017-11-24T07:00:00.725Z,0.00
2017-11-24T07:01:00.727Z,0.00
2017-11-24T07:02:00.722Z,0.00
2017-11-24T07:03:00.722Z,0.00
2017-11-24T07:04:00.726Z,0.00
2017-11-24T07:05:00.722Z,0.00
2017-11-24T07:06:00.713Z,0.00
2017-11-24T07:07:00.716Z,0.00
2017-11-24T07:08:00.714Z,0.00
2017-11-24T07:09:00.719Z,0.00
2017-11-24T07:10:00.729Z,0.00
2017-11-24T07:11:00.722Z,0.00
2017-11-24T07:12:00.710Z,0.00
2017-11-24T07:13:00.730Z,0.00
2017-11-24T07:14:00.711Z,0.00
2017-11-24T07:15:00.705Z,0.00
2017-11-24T07:16:00.708Z,0.00
2017-11-24T07:17:00.706Z,0.00
2017-11-24T07:18:00.701Z,0.00
2017-11-24T07:19:00.705Z,0.00
2017-11-24T07:20:00.707Z,0.00
2017-11-24T07:21:00.706Z,0.00
2017-11-24T07:22:00.695Z,0.00
2017-11-24T07:23:00.695Z,0.00
2017-11-24T07:24:00.694Z,0.00
2017-11-24T07:25:00.694Z,0.00
2017-11-24T07:26:00.695Z,0.00
2017-11-24T07:27:00.692Z,0.00
2017-11-24T07:28:00.698Z,0.00
2017-11-24T07:29:00.683Z,0.00
2017-11-24T07:30:00.685Z,0.00
2017-11-24T07:31:00.681Z,0.00
2017-11-24T07:32:00.680Z,0.00
2017-11-24T07:33:00.688Z,0.00
2017-11-24T07:34:00.694Z,0.00
2017-11-24T07:35:00.682Z,0.00
2017-11-24T07:36:00.673Z,0.00
2017-11-24T07:37:00.675Z,0.00
2017-11-24T07:38:00.678Z,0.00
2017-11-24T07:39:00.672Z,0.00
2017-11-24T07:40:00.678Z,0.00
2017-11-24T07:41:00.672Z,0.00
2017-11-24T07:42:00.667Z,0.00
2017-11-24T07:43:00.663Z,0.00
2017-11-24T07:44:00.665Z,0.00
2017-11-24T07:45:00.664Z,0.00
2017-11-24T07:46:00.660Z,0.00
2017-11-24T07:47:00.657Z,0.00
2017-11-24T07:48:00.666Z,0.00
2017-11-24T07:49:00.668Z,5.63
2017-11-24T07:50:00.659Z,5.63
2017-11-24T07:51:00.657Z,5.63
2017-11-24T07:52:00.658Z,5.63
2017-11-24T07:53:00.657Z,5.63
2017-11-24T07:54:00.649Z,5.63
2017-11-24T07:55:00.653Z,5.63
2017-11-24T07:56:00.652Z,5.63
2017-11-24T07:57:00.645Z,5.63
2017-11-24T07:58:00.659Z,5.63
2017-11-24T07:59:00.648Z,5.63
2017-11-24T08:00:00.640Z,5.63
2017-11-24T08:01:00.641Z,11.25
2017-11-24T08:02:00.641Z,11.25
2017-11-24T08:03:00.637Z,11.25
2017-11-24T08:04:00.641Z,11.25
2017-11-24T08:05:00.635Z,11.25
2017-11-24T08:06:00.645Z,11.25
2017-11-24T08:07:00.632Z,11.25
2017-11-24T08:08:00.634Z,11.25
2017-11-24T08:10:32.753Z,11.25
2017-11-24T08:11:32.711Z,11.25
2017-11-24T08:12:32.704Z,11.25
2017-11-24T08:13:32.704Z,11.25
2017-11-24T08:14:32.708Z,11.25
2017-11-24T08:15:32.706Z,11.25
2017-11-24T08:16:32.698Z,11.25
2017-11-24T08:17:32.713Z,11.25
2017-11-24T08:18:32.695Z,11.25
2017-11-24T08:19:32.694Z,11.25
2017-11-24T08:20:32.701Z,11.25
2017-11-24T08:21:32.717Z,11.25
2017-11-24T08:22:32.727Z,11.25
2017-11-24T08:23:32.851Z,11.25
2017-11-24T08:24:32.982Z,16.88
2017-11-24T08:25:33.036Z,16.88
2017-11-24T08:26:32.811Z,22.50
2017-11-24T08:27:32.693Z,22.50
2017-11-24T08:28:32.689Z,22.50
2017-11-24T08:29:32.683Z,22.50
2017-11-24T08:30:32.683Z,22.50
2017-11-24T08:31:32.681Z,22.50
2017-11-24T08:32:32.685Z,16.88
2017-11-24T08:33:32.683Z,16.88
2017-11-24T08:34:32.677Z,11.25
2017-11-24T08:35:32.677Z,11.25
2017-11-24T08:36:32.677Z,5.63
2017-11-24T08:37:32.672Z,5.63
2017-11-24T08:38:32.668Z,5.63
2017-11-24T08:39:32.670Z,5.63
2017-11-24T08:40:32.682Z,5.63
2017-11-24T08:41:32.669Z,5.63
2017-11-24T08:42:32.671Z,5.63
2017-11-24T08:43:32.671Z,5.63
2017-11-24T08:44:32.682Z,5.63
2017-11-24T08:45:32.668Z,5.63
2017-11-24T08:46:32.664Z,5.63
2017-11-24T08:47:32.662Z,5.63
2017-11-24T08:48:32.661Z,5.63
2017-11-24T08:49:32.662Z,5.63
2017-11-24T08:50:32.668Z,5.63
2017-11-24T08:51:32.661Z,5.63
2017-11-24T08:52:32.657Z,5.63
2017-11-24T08:53:32.651Z,5.63
2017-11-24T08:54:32.654Z,11.25
2017-11-24T08:55:32.655Z,11.25
2017-11-24T08:56:32.653Z,11.25
2017-11-24T08:57:32.650Z,16.88
2017-11-24T08:58:32.650Z,16.88
2017-11-24T08:59:32.668Z,16.88
2017-11-24T09:00:32.648Z,16.88
2017-11-24T09:01:32.644Z,22.50
2017-11-24T09:02:32.652Z,22.50
2017-11-24T09:03:32.642Z,22.50
2017-11-24T09:04:32.646Z,22.50
2017-11-24T09:05:32.644Z,28.13
2017-11-24T09:06:32.648Z,33.75
2017-11-24T09:07:32.639Z,39.38
2017-11-24T09:08:32.644Z,45.00
2017-11-24T09:09:32.636Z,45.00
2017-11-24T09:10:32.642Z,50.63
2017-11-24T09:11:32.640Z,50.63
2017-11-24T09:12:32.633Z,56.25
2017-11-24T09:13:32.634Z,56.25
2017-11-24T09:14:32.636Z,61.88
2017-11-24T09:15:32.629Z,61.88
2017-11-24T09:16:32.630Z,61.88
2017-11-24T09:17:32.628Z,61.88
2017-11-24T09:18:32.636Z,56.25
2017-11-24T09:19:32.628Z,50.63
2017-11-24T09:20:32.635Z,50.63
2017-11-24T09:21:32.628Z,56.25
2017-11-24T09:22:32.622Z,61.88
2017-11-24T09:23:32.632Z,67.50
2017-11-24T09:24:32.623Z,67.50
2017-11-24T09:25:32.626Z,67.50
2017-11-24T09:26:32.621Z,67.50
2017-11-24T09:27:32.623Z,67.50
2017-11-24T09:28:32.618Z,67.50
2017-11-24T09:29:32.622Z,67.50
2017-11-24T09:30:32.623Z,67.50
2017-11-24T09:31:32.624Z,67.50
2017-11-24T09:32:32.616Z,67.50
2017-11-24T09:33:32.616Z,67.50
2017-11-24T09:34:32.616Z,67.50
2017-11-24T09:35:32.611Z,67.50
2017-11-24T09:36:32.610Z,67.50
2017-11-24T09:37:32.610Z,67.50
2017-11-24T09:38:32.615Z,73.13
2017-11-24T09:39:32.608Z,78.75
2017-11-24T09:40:32.604Z,84.38
2017-11-24T09:41:32.601Z,95.63
2017-11-24T09:42:32.603Z,106.88
2017-11-24T09:43:32.608Z,112.50
2017-11-24T09:44:32.604Z,118.13
2017-11-24T09:45:32.602Z,118.13
2017-11-24T09:46:32.607Z,123.75
2017-11-24T09:47:32.604Z,123.75
2017-11-24T09:48:32.610Z,123.75
2017-11-24T09:49:32.599Z,123.75
2017-11-24T09:50:32.596Z,123.75
2017-11-24T09:51:32.602Z,118.13
2017-11-24T09:52:32.598Z,112.50
2017-11-24T09:53:32.598Z,106.88
2017-11-24T09:54:33.673Z,106.88
2017-11-24T09:57:04.711Z,106.88
2017-11-24T09:58:04.664Z,112.50
2017-11-24T09:59:04.663Z,112.50
2017-11-24T10:00:04.673Z,112.50
2017-11-24T10:01:04.664Z,118.13
2017-11-24T10:02:04.667Z,118.13
2017-11-24T10:03:04.665Z,112.50
2017-11-24T10:04:04.676Z,112.50
2017-11-24T10:05:04.666Z,112.50
2017-11-24T10:06:04.663Z,118.13
2017-11-24T10:07:04.664Z,118.13
2017-11-24T10:08:04.661Z,118.13
2017-11-24T10:09:04.657Z,123.75
2017-11-24T10:10:04.662Z,123.75
2017-11-24T10:11:04.658Z,129.38
2017-11-24T10:12:04.659Z,129.38
2017-11-24T10:13:04.657Z,129.38
2017-11-24T10:14:04.657Z,123.75
2017-11-24T10:15:04.658Z,118.13
2017-11-24T10:16:04.659Z,118.13
2017-11-24T10:17:04.660Z,112.50
2017-11-24T10:18:04.662Z,112.50
2017-11-24T10:19:04.652Z,112.50
2017-11-24T10:20:04.655Z,112.50
2017-11-24T10:21:04.657Z,106.88
2017-11-24T10:22:04.653Z,106.88
2017-11-24T10:23:04.653Z,106.88
2017-11-24T10:24:04.654Z,101.25
2017-11-24T10:25:04.652Z,95.63
2017-11-24T10:26:04.657Z,90.00
2017-11-24T10:27:04.654Z,90.00
2017-11-24T10:28:04.653Z,95.63
2017-11-24T10:29:04.652Z,101.25
2017-11-24T10:30:04.658Z,106.88
2017-11-24T10:31:04.654Z,112.50
2017-11-24T10:32:04.656Z,106.88
2017-11-24T10:33:04.661Z,106.88
2017-11-24T10:34:04.654Z,106.88
2017-11-24T10:35:04.652Z,106.88
2017-11-24T10:36:04.654Z,106.88
2017-11-24T10:37:04.657Z,106.88
2017-11-24T10:38:04.648Z,106.88
2017-11-24T10:39:04.649Z,106.88
2017-11-24T10:40:04.655Z,106.88
2017-11-24T10:41:04.656Z,112.50
2017-11-24T10:42:04.648Z,118.13
2017-11-24T10:43:04.650Z,123.75
2017-11-24T10:44:04.649Z,129.38
2017-11-24T10:45:04.655Z,135.00
2017-11-24T10:46:04.652Z,129.38
2017-11-24T10:47:04.651Z,135.00
2017-11-24T10:48:04.643Z,135.00
2017-11-24T10:49:04.650Z,135.00
2017-11-24T10:50:04.647Z,135.00
2017-11-24T10:51:04.649Z,140.63
2017-11-24T10:52:04.648Z,140.63
2017-11-24T10:53:04.642Z,140.63
2017-11-24T10:54:04.649Z,140.63
2017-11-24T10:55:04.653Z,135.00
2017-11-24T10:56:05.527Z,140.63
2017-11-24T10:57:04.646Z,129.38
2017-11-24T10:58:04.645Z,129.38
2017-11-24T10:59:04.650Z,129.38
2017-11-24T11:00:04.651Z,129.38
2017-11-24T11:01:04.644Z,140.63
2017-11-24T11:02:04.643Z,146.25
2017-11-24T11:03:04.648Z,146.25
2017-11-24T11:04:04.648Z,146.25
2017-11-24T11:05:04.645Z,146.25
2017-11-24T11:06:04.643Z,140.63
2017-11-24T11:07:04.637Z,140.63
2017-11-24T11:08:04.639Z,135.00
2017-11-24T11:09:04.644Z,135.00
2017-11-24T11:10:04.644Z,129.38
2017-11-24T11:11:04.643Z,123.75
2017-11-24T11:12:04.644Z,118.13
2017-11-24T11:13:04.641Z,118.13
2017-11-24T11:14:04.646Z,112.50
2017-11-24T11:15:04.924Z,112.50
2017-11-24T11:16:04.856Z,106.88
2017-11-24T11:17:05.197Z,106.88
2017-11-24T11:18:04.662Z,112.50
2017-11-24T11:19:04.650Z,106.88
2017-11-24T11:20:04.643Z,112.50
2017-11-24T11:21:04.642Z,112.50
2017-11-24T11:22:04.646Z,112.50
2017-11-24T11:23:04.640Z,118.13
2017-11-24T11:24:04.643Z,118.13
2017-11-24T11:25:04.641Z,118.13
2017-11-24T11:26:04.636Z,118.13
2017-11-24T11:27:04.640Z,118.13
2017-11-24T11:28:04.644Z,123.75
2017-11-24T11:29:04.637Z,123.75
2017-11-24T11:30:04.645Z,118.13
2017-11-24T11:31:04.640Z,123.75
2017-11-24T11:32:04.641Z,112.50
2017-11-24T11:33:04.641Z,129.38
2017-11-24T11:34:04.638Z,112.50
2017-11-24T11:35:04.635Z,112.50
2017-11-24T11:36:04.639Z,106.88
2017-11-24T11:37:04.633Z,106.88
2017-11-24T11:38:04.639Z,106.88
2017-11-24T11:39:04.639Z,112.50
2017-11-24T11:40:04.632Z,118.13
2017-11-24T11:41:04.634Z,129.38
2017-11-24T11:42:04.633Z,140.63
2017-11-24T11:43:04.633Z,151.88
2017-11-24T11:44:04.631Z,151.88
2017-11-24T11:45:04.634Z,140.63
2017-11-24T11:46:04.632Z,146.25
2017-11-24T11:47:04.636Z,146.25
2017-11-24T11:48:04.633Z,146.25
2017-11-24T11:49:04.633Z,140.63
2017-11-24T11:50:04.634Z,129.38
2017-11-24T11:51:06.531Z,118.13
2017-11-24T11:52:04.646Z,106.88
2017-11-24T11:53:04.646Z,101.25
2017-11-24T11:54:04.633Z,90.00
2017-11-24T11:55:04.640Z,90.00
2017-11-24T11:56:04.639Z,90.00
2017-11-24T11:57:04.633Z,84.38
2017-11-24T11:58:04.633Z,90.00
2017-11-24T11:59:04.636Z,95.63
2017-11-24T12:00:04.637Z,101.25
2017-11-24T12:01:04.634Z,106.88
2017-11-24T12:02:04.636Z,106.88
2017-11-24T12:03:04.635Z,112.50
2017-11-24T12:04:04.634Z,106.88
2017-11-24T12:05:04.635Z,112.50
2017-11-24T12:06:04.635Z,106.88
2017-11-24T12:07:04.636Z,106.88
2017-11-24T12:08:04.638Z,106.88
2017-11-24T12:09:04.629Z,112.50
2017-11-24T12:10:04.629Z,112.50
2017-11-24T12:11:04.650Z,106.88
2017-11-24T12:12:04.632Z,106.88
2017-11-24T12:13:04.643Z,101.25
2017-11-24T12:14:04.632Z,101.25
2017-11-24T12:15:04.630Z,95.63
2017-11-24T12:16:04.637Z,84.38
2017-11-24T12:17:04.634Z,78.75
2017-11-24T12:18:04.631Z,73.13
2017-11-24T12:19:04.634Z,73.13
2017-11-24T12:20:04.631Z,84.38
2017-11-24T12:21:04.638Z,95.63
2017-11-24T12:22:04.637Z,101.25
2017-11-24T12:23:04.636Z,106.88
2017-11-24T12:24:04.654Z,112.50
2017-11-24T12:25:04.643Z,118.13
2017-11-24T12:26:04.625Z,118.13
2017-11-24T12:27:04.626Z,123.75
2017-11-24T12:28:04.640Z,123.75
2017-11-24T12:29:04.626Z,118.13
2017-11-24T12:30:04.642Z,112.50
2017-11-24T12:31:04.626Z,112.50
2017-11-24T12:32:04.649Z,112.50
2017-11-24T12:33:04.632Z,112.50
2017-11-24T12:34:04.693Z,106.88
2017-11-24T12:35:04.632Z,95.63
2017-11-24T12:36:05.034Z,84.38
2017-11-24T12:37:04.633Z,73.13
2017-11-24T12:38:04.628Z,73.13
2017-11-24T12:39:04.631Z,67.50
2017-11-24T12:40:04.677Z,61.88
2017-11-24T12:41:04.629Z,61.88
2017-11-24T12:42:04.629Z,56.25
2017-11-24T12:43:04.630Z,56.25
2017-11-24T12:44:04.628Z,56.25
2017-11-24T12:45:04.631Z,56.25
2017-11-24T12:46:04.625Z,56.25
2017-11-24T12:47:04.632Z,50.63
2017-11-24T12:48:04.621Z,50.63
2017-11-24T12:49:04.630Z,50.63
2017-11-24T12:50:04.635Z,50.63
2017-11-24T12:51:04.632Z,50.63
2017-11-24T12:52:04.632Z,50.63
2017-11-24T12:53:04.632Z,50.63
2017-11-24T12:54:04.627Z,50.63
2017-11-24T12:55:04.624Z,45.00
2017-11-24T12:56:04.622Z,45.00
2017-11-24T12:57:04.629Z,45.00
2017-11-24T12:58:04.623Z,39.38
2017-11-24T12:59:04.627Z,39.38
2017-11-24T13:00:04.624Z,39.38
2017-11-24T13:01:04.625Z,39.38
2017-11-24T13:02:04.623Z,39.38
2017-11-24T13:03:04.623Z,39.38
2017-11-24T13:04:04.623Z,39.38
2017-11-24T13:05:04.632Z,39.38
2017-11-24T13:06:04.620Z,39.38